createdAt,value
2018-06-10T00:00:34.130Z,58.99
2018-06-10T00:03:01.877Z,59.34
2018-06-10T00:05:29.441Z,59.36
2018-06-10T00:07:57.187Z,59.62
2018-06-10T00:10:24.764Z,59.41
2018-06-10T00:12:52.347Z,59.79
2018-06-10T00:15:20.022Z,59.33
2018-06-10T00:17:47.584Z,59.69
2018-06-10T00:20:15.374Z,59.56
2018-06-10T00:22:42.999Z,59.64
2018-06-10T00:25:10.543Z,59.48
2018-06-10T00:27:38.314Z,59.51
2018-06-10T00:30:05.887Z,59.51
2018-06-10T00:32:33.607Z,59.53
2018-06-10T00:35:01.215Z,59.36
2018-06-10T00:37:28.754Z,59.65
2018-06-10T00:39:56.563Z,58.97
2018-06-10T00:42:24.102Z,58.75
2018-06-10T00:44:51.728Z,58.63
2018-06-10T00:47:19.515Z,58.88
2018-06-10T00:49:47.098Z,59.15
2018-06-10T00:52:14.905Z,58.43
2018-06-10T00:54:42.458Z,58.21
2018-06-10T00:57:10.012Z,58.91
2018-06-10T00:59:37.798Z,59.05
2018-06-10T01:02:05.395Z,58.48
2018-06-10T01:04:33.108Z,58.37
2018-06-10T01:07:00.658Z,58.20
2018-06-10T01:09:28.243Z,57.76
2018-06-10T01:11:55.983Z,58.11
2018-06-10T01:14:23.532Z,58.74
2018-06-10T01:16:51.294Z,58.46
2018-06-10T01:19:19.850Z,58.69
2018-06-10T01:21:47.392Z,58.38
2018-06-10T01:24:15.162Z,58.68
2018-06-10T01:26:48.358Z,58.60
2018-06-10T01:29:15.981Z,58.45
2018-06-10T01:31:43.707Z,58.59
2018-06-10T01:34:11.242Z,58.55
2018-06-10T01:36:39.032Z,57.88
2018-06-10T01:39:06.710Z,58.03
2018-06-10T01:41:34.411Z,58.03
2018-06-10T01:44:02.187Z,57.67
2018-06-10T01:46:29.732Z,57.72
2018-06-10T01:48:57.428Z,58.26
2018-06-10T01:51:25.029Z,58.16
2018-06-10T01:53:52.560Z,58.04
2018-06-10T01:56:20.347Z,57.79
2018-06-10T01:58:47.918Z,58.48
2018-06-10T02:01:15.608Z,58.80
2018-06-10T02:03:43.252Z,58.89
2018-06-10T02:06:10.895Z,59.00
2018-06-10T02:08:39.254Z,59.21
2018-06-10T02:11:06.843Z,58.66
2018-06-10T02:13:34.434Z,58.55
2018-06-10T02:16:02.164Z,58.13
2018-06-10T02:18:29.723Z,58.13
2018-06-10T02:20:57.438Z,58.57
2018-06-10T02:23:25.057Z,58.80
2018-06-10T02:25:52.615Z,58.88
2018-06-10T02:28:20.387Z,58.77
2018-06-10T02:30:47.926Z,58.17
2018-06-10T02:33:15.631Z,58.30
2018-06-10T02:35:43.302Z,58.20
2018-06-10T02:38:10.867Z,58.32
2018-06-10T02:40:38.615Z,58.37
2018-06-10T02:43:06.178Z,58.22
2018-06-10T02:45:33.838Z,59.00
2018-06-10T02:48:01.625Z,58.72
2018-06-10T02:50:29.218Z,58.87
2018-06-10T02:52:57.003Z,58.65
2018-06-10T02:55:24.542Z,58.19
2018-06-10T02:57:52.168Z,58.75
2018-06-10T03:00:19.922Z,58.76
2018-06-10T03:02:47.460Z,58.21
2018-06-10T03:05:15.200Z,58.49
2018-06-10T03:07:42.748Z,57.99
2018-06-10T03:10:10.299Z,58.35
2018-06-10T03:12:38.065Z,58.24
2018-06-10T03:15:05.628Z,57.98
2018-06-10T03:17:33.339Z,58.41
2018-06-10T03:20:00.956Z,57.74
2018-06-10T03:22:28.492Z,58.51
2018-06-10T03:24:56.235Z,58.76
2018-06-10T03:27:23.820Z,58.77
2018-06-10T03:29:51.555Z,58.92
2018-06-10T03:32:19.262Z,59.09
2018-06-10T03:34:46.835Z,59.14
2018-06-10T03:37:14.601Z,59.13
2018-06-10T03:39:42.146Z,58.95
2018-06-10T03:42:09.890Z,58.39
2018-06-10T03:44:37.602Z,58.40
2018-06-10T03:47:05.210Z,58.40
2018-06-10T03:49:32.981Z,58.66
2018-06-10T03:52:00.513Z,58.55
2018-06-10T03:54:28.097Z,58.78
2018-06-10T03:56:55.924Z,58.77
2018-06-10T03:59:23.469Z,58.87
2018-06-10T04:01:51.240Z,59.09
2018-06-10T04:04:18.820Z,58.94
2018-06-10T04:06:46.361Z,58.28
2018-06-10T04:09:14.069Z,58.67
2018-06-10T04:11:41.635Z,58.61
2018-06-10T04:14:09.387Z,58.10
2018-06-10T04:16:37.000Z,58.40
2018-06-10T04:19:04.616Z,58.75
2018-06-10T04:21:32.437Z,58.65
2018-06-10T04:23:59.980Z,58.41
2018-06-10T04:26:27.780Z,58.13
2018-06-10T04:28:55.400Z,58.49
2018-06-10T04:31:22.963Z,58.18
2018-06-10T04:33:50.723Z,58.02
2018-06-10T04:36:18.262Z,58.26
2018-06-10T04:38:45.886Z,57.91
2018-06-10T04:41:13.622Z,57.91
2018-06-10T04:43:41.171Z,57.40
2018-06-10T04:46:08.970Z,56.89
2018-06-10T04:48:36.530Z,55.99
2018-06-10T04:51:04.198Z,56.98
2018-06-10T04:53:31.966Z,57.53
2018-06-10T04:55:59.547Z,57.26
2018-06-10T04:58:27.312Z,57.80
2018-06-10T05:00:54.868Z,57.52
2018-06-10T05:03:22.450Z,57.54
2018-06-10T05:05:50.179Z,57.54
2018-06-10T05:08:17.728Z,57.15
2018-06-10T05:10:45.463Z,56.73
2018-06-10T05:13:13.062Z,56.81
2018-06-10T05:15:40.632Z,56.61
2018-06-10T05:18:08.483Z,56.33
2018-06-10T05:20:36.050Z,56.25
2018-06-10T05:23:03.780Z,56.08
2018-06-10T05:25:31.413Z,56.82
2018-06-10T05:27:58.936Z,56.92
2018-06-10T05:30:26.687Z,56.65
2018-06-10T05:32:54.254Z,56.14
2018-06-10T05:35:22.113Z,55.94
2018-06-10T05:37:49.804Z,56.64
2018-06-10T05:40:17.379Z,56.53
2018-06-10T05:42:45.138Z,55.88
2018-06-10T05:45:12.695Z,56.33
2018-06-10T05:47:40.336Z,56.22
2018-06-10T05:50:08.086Z,55.49
2018-06-10T05:52:35.626Z,56.13
2018-06-10T05:55:03.424Z,55.27
2018-06-10T05:57:31.036Z,55.24
2018-06-10T05:59:58.585Z,55.49
2018-06-10T06:02:26.451Z,54.93
2018-06-10T06:04:53.999Z,55.29
2018-06-10T06:07:21.739Z,55.12
2018-06-10T06:09:49.319Z,54.65
2018-06-10T06:12:16.850Z,55.18
2018-06-10T06:14:44.628Z,55.24
2018-06-10T06:17:12.197Z,54.77
2018-06-10T06:19:39.875Z,55.04
2018-06-10T06:22:07.511Z,54.57
2018-06-10T06:24:35.158Z,54.70
2018-06-10T06:27:02.912Z,54.26
2018-06-10T06:29:30.457Z,54.40
2018-06-10T06:31:58.086Z,53.90
2018-06-10T06:34:25.855Z,53.91
2018-06-10T06:36:53.439Z,53.19
2018-06-10T06:39:21.132Z,53.33
2018-06-10T06:41:48.667Z,53.40
2018-06-10T06:44:16.271Z,52.82
2018-06-10T06:46:44.110Z,52.61
2018-06-10T06:49:11.664Z,52.65
2018-06-10T06:51:39.370Z,51.78
2018-06-10T06:54:07.001Z,52.32
2018-06-10T06:56:34.532Z,52.52
2018-06-10T06:59:02.091Z,52.41
2018-06-10T07:01:29.692Z,52.37
2018-06-10T07:03:57.238Z,52.76
2018-06-10T07:06:24.784Z,53.03
2018-06-10T07:08:52.358Z,52.27
2018-06-10T07:11:19.922Z,52.20
2018-06-10T07:13:48.587Z,52.17
2018-06-10T07:16:16.137Z,52.31
2018-06-10T07:18:43.650Z,52.10
2018-06-10T07:21:11.198Z,51.99
2018-06-10T07:23:38.795Z,52.13
2018-06-10T07:26:06.364Z,51.36
2018-06-10T07:28:33.894Z,51.44
2018-06-10T07:31:01.486Z,51.12
2018-06-10T07:33:29.030Z,50.47
2018-06-10T07:35:56.585Z,50.30
2018-06-10T07:38:24.166Z,49.41
2018-06-10T07:40:51.731Z,49.21
2018-06-10T07:43:19.246Z,48.55
2018-06-10T07:45:46.826Z,48.67
2018-06-10T07:48:14.385Z,48.78
2018-06-10T07:50:41.919Z,48.54
2018-06-10T07:53:09.463Z,48.89
2018-06-10T07:55:37.182Z,49.00
2018-06-10T07:58:04.764Z,48.33
2018-06-10T08:00:32.328Z,48.00
2018-06-10T08:02:59.865Z,48.10
2018-06-10T08:05:27.495Z,47.47
2018-06-10T08:07:55.066Z,47.77
2018-06-10T08:10:22.600Z,47.43
2018-06-10T08:12:50.165Z,47.12
2018-06-10T08:15:17.775Z,46.93
2018-06-10T08:17:45.302Z,47.12
2018-06-10T08:20:12.824Z,46.94
2018-06-10T08:22:40.395Z,47.53
2018-06-10T08:25:08.013Z,47.44
2018-06-10T08:27:35.579Z,47.67
2018-06-10T08:30:03.438Z,47.94
2018-06-10T08:32:31.002Z,48.19
2018-06-10T08:34:58.542Z,47.92
2018-06-10T08:37:26.149Z,47.73
2018-06-10T08:39:53.638Z,47.77
2018-06-10T08:42:21.198Z,48.43
2018-06-10T08:44:48.763Z,49.09
2018-06-10T08:47:16.280Z,50.01
2018-06-10T08:49:43.862Z,50.31
2018-06-10T08:52:11.438Z,49.65
2018-06-10T08:54:39.016Z,50.14
2018-06-10T08:57:06.567Z,50.49
2018-06-10T08:59:34.855Z,50.87
2018-06-10T09:02:02.389Z,51.89
2018-06-10T09:04:29.949Z,51.91
2018-06-10T09:06:57.527Z,51.98
2018-06-10T09:09:25.074Z,52.06
2018-06-10T09:11:52.628Z,51.96
2018-06-10T09:14:20.170Z,52.17
2018-06-10T09:16:47.717Z,52.19
2018-06-10T09:19:15.257Z,52.17
2018-06-10T09:21:42.822Z,52.03
2018-06-10T09:24:10.359Z,51.47
2018-06-10T09:26:37.909Z,52.06
2018-06-10T09:29:05.480Z,51.75
2018-06-10T09:31:33.006Z,52.41
2018-06-10T09:34:00.554Z,52.10
2018-06-10T09:36:28.130Z,51.85
2018-06-10T09:38:55.683Z,51.88
2018-06-10T09:41:23.236Z,51.29
2018-06-10T09:43:50.795Z,51.49
2018-06-10T09:46:18.384Z,52.30
2018-06-10T09:48:45.922Z,51.68
2018-06-10T09:51:13.531Z,51.35
2018-06-10T09:53:41.126Z,50.87
2018-06-10T09:56:08.693Z,50.38
2018-06-10T09:58:36.275Z,50.17
2018-06-10T10:01:03.809Z,49.39
2018-06-10T10:03:31.517Z,49.69
2018-06-10T10:05:59.107Z,48.42
2018-06-10T10:08:26.644Z,47.84
2018-06-10T10:10:54.225Z,47.56
2018-06-10T10:13:21.961Z,46.35
2018-06-10T10:15:49.555Z,46.76
2018-06-10T10:18:17.098Z,46.86
2018-06-10T10:20:44.655Z,46.35
2018-06-10T10:23:12.307Z,45.40
2018-06-10T10:25:39.885Z,44.90
2018-06-10T10:28:07.495Z,45.32
2018-06-10T10:30:35.298Z,44.71
2018-06-10T10:33:02.819Z,44.87
2018-06-10T10:35:30.390Z,45.70
2018-06-10T10:37:57.938Z,45.03
2018-06-10T10:40:25.526Z,45.18
2018-06-10T10:42:53.166Z,45.02
2018-06-10T10:45:20.725Z,44.60
2018-06-10T10:47:48.260Z,44.16
2018-06-10T10:50:15.887Z,44.63
2018-06-10T10:52:43.406Z,44.20
2018-06-10T10:55:10.983Z,44.16
2018-06-10T10:57:38.555Z,45.04
2018-06-10T11:00:06.121Z,44.89
2018-06-10T11:02:33.625Z,43.47
2018-06-10T11:05:01.208Z,42.98
2018-06-10T11:07:28.719Z,42.43
2018-06-10T11:09:56.224Z,43.25
2018-06-10T11:12:23.780Z,43.07
2018-06-10T11:14:51.344Z,42.76
2018-06-10T11:17:18.884Z,43.26
2018-06-10T11:19:46.435Z,41.92
2018-06-10T11:22:13.959Z,40.36
2018-06-10T11:24:41.499Z,40.06
2018-06-10T11:27:09.129Z,39.55
2018-06-10T11:29:36.586Z,39.12
2018-06-10T11:32:04.078Z,38.70
2018-06-10T11:34:31.679Z,37.86
2018-06-10T11:36:59.173Z,39.47
2018-06-10T11:39:26.715Z,39.18
2018-06-10T11:41:54.274Z,38.81
2018-06-10T11:44:21.813Z,38.95
2018-06-10T11:46:49.545Z,35.85
2018-06-10T11:49:17.474Z,32.46
2018-06-10T11:51:44.978Z,31.88
2018-06-10T11:54:12.727Z,30.64
2018-06-10T11:56:40.467Z,29.41
2018-06-10T11:59:08.002Z,27.45
2018-06-10T12:01:35.543Z,27.89
2018-06-10T12:04:03.107Z,25.96
2018-06-10T12:06:30.651Z,25.35
2018-06-10T12:08:58.210Z,25.47
2018-06-10T12:11:25.783Z,27.38
2018-06-10T12:13:53.322Z,29.80
2018-06-10T12:16:20.872Z,31.96
2018-06-10T12:18:48.693Z,32.94
2018-06-10T12:21:16.226Z,32.31
2018-06-10T12:23:43.810Z,31.30
2018-06-10T12:26:11.382Z,28.75
2018-06-10T12:28:38.918Z,27.47
2018-06-10T12:31:06.700Z,26.45
2018-06-10T12:33:34.252Z,26.00
2018-06-10T12:36:01.874Z,25.56
2018-06-10T12:38:29.388Z,26.03
2018-06-10T12:40:57.121Z,25.28
2018-06-10T12:43:24.630Z,25.16
2018-06-10T12:45:52.572Z,29.49
2018-06-10T12:48:20.194Z,29.04
2018-06-10T12:50:47.795Z,31.64
2018-06-10T12:53:15.485Z,34.13
2018-06-10T12:55:43.062Z,35.67
2018-06-10T12:58:10.566Z,36.43
2018-06-10T13:00:38.107Z,32.17
2018-06-10T13:03:05.835Z,31.30
2018-06-10T13:05:33.662Z,31.57
2018-06-10T13:08:01.186Z,29.88
2018-06-10T13:10:28.769Z,29.03
2018-06-10T13:12:56.330Z,29.27
2018-06-10T13:15:23.858Z,29.25
2018-06-10T13:17:51.414Z,30.73
2018-06-10T13:20:18.932Z,31.04
2018-06-10T13:22:46.459Z,33.08
2018-06-10T13:25:14.016Z,35.16
2018-06-10T13:27:41.644Z,34.54
2018-06-10T13:30:09.107Z,34.42
2018-06-10T13:32:36.752Z,35.23
2018-06-10T13:35:04.285Z,36.59
2018-06-10T13:37:31.782Z,37.89
2018-06-10T13:39:59.380Z,39.25
2018-06-10T13:42:26.909Z,39.32
2018-06-10T13:44:54.418Z,40.62
2018-06-10T13:47:21.970Z,41.14
2018-06-10T13:49:49.466Z,42.11
2018-06-10T13:52:16.998Z,42.18
2018-06-10T13:54:44.550Z,43.08
2018-06-10T13:57:12.049Z,43.69
2018-06-10T13:59:39.552Z,44.74
2018-06-10T14:02:07.143Z,45.31
2018-06-10T14:04:34.666Z,44.90
2018-06-10T14:07:02.226Z,45.36
2018-06-10T14:09:29.758Z,45.05
2018-06-10T14:11:57.373Z,45.90
2018-06-10T14:14:24.874Z,46.52
2018-06-10T14:16:52.401Z,46.88
2018-06-10T14:19:19.953Z,46.69
2018-06-10T14:21:47.458Z,46.83
2018-06-10T14:24:14.994Z,47.06
2018-06-10T14:26:42.494Z,46.68
2018-06-10T14:29:10.033Z,46.91
2018-06-10T14:31:37.606Z,44.64
2018-06-10T14:34:05.130Z,42.39
2018-06-10T14:36:32.618Z,40.59
2018-06-10T14:39:00.177Z,39.36
2018-06-10T14:41:27.697Z,37.45
2018-06-10T14:43:55.213Z,37.81
2018-06-10T14:46:22.746Z,37.26
2018-06-10T14:48:50.281Z,36.36
2018-06-10T14:51:17.834Z,34.85
2018-06-10T14:53:45.385Z,34.78
2018-06-10T14:56:12.901Z,36.01
2018-06-10T14:58:40.402Z,36.67
2018-06-10T15:01:07.946Z,37.55
2018-06-10T15:03:35.491Z,38.23
2018-06-10T15:06:03.262Z,40.08
2018-06-10T15:08:31.018Z,40.38
2018-06-10T15:10:58.572Z,40.65
2018-06-10T15:13:26.379Z,40.17
2018-06-10T15:15:54.031Z,40.18
2018-06-10T15:18:21.586Z,40.19
2018-06-10T15:20:49.410Z,41.32
2018-06-10T15:23:16.990Z,42.08
2018-06-10T15:25:44.725Z,41.84
2018-06-10T15:28:12.308Z,42.46
2018-06-10T15:30:40.007Z,42.24
2018-06-10T15:33:07.758Z,43.29
2018-06-10T15:35:35.273Z,43.29
2018-06-10T15:38:02.948Z,44.15
2018-06-10T15:40:30.723Z,44.61
2018-06-10T15:42:58.254Z,43.69
2018-06-10T15:45:26.240Z,43.25
2018-06-10T15:47:53.828Z,43.03
2018-06-10T15:50:21.460Z,41.86
2018-06-10T15:52:49.274Z,41.95
2018-06-10T15:55:16.798Z,42.48
2018-06-10T15:57:44.559Z,42.16
2018-06-10T16:00:12.302Z,42.02
2018-06-10T16:02:39.819Z,41.04
2018-06-10T16:05:07.655Z,41.78
2018-06-10T16:07:35.189Z,40.87
2018-06-10T16:10:02.865Z,40.94
2018-06-10T16:12:30.573Z,41.03
2018-06-10T16:14:58.314Z,41.19
2018-06-10T16:17:26.144Z,41.74
2018-06-10T16:19:53.670Z,41.53
2018-06-10T16:22:21.258Z,41.52
2018-06-10T16:24:49.021Z,42.88
2018-06-10T16:27:16.553Z,42.29
2018-06-10T16:29:44.333Z,41.97
2018-06-10T16:32:11.901Z,42.73
2018-06-10T16:34:39.475Z,42.41
2018-06-10T16:37:07.218Z,42.67
2018-06-10T16:39:34.934Z,43.10
2018-06-10T16:42:02.693Z,43.67
2018-06-10T16:44:30.303Z,43.88
2018-06-10T16:46:57.810Z,44.33
2018-06-10T16:49:25.638Z,43.88
2018-06-10T16:51:53.203Z,44.22
2018-06-10T16:54:20.919Z,44.13
2018-06-10T16:56:48.658Z,44.04
2018-06-10T16:59:16.239Z,44.44
2018-06-10T17:01:44.152Z,45.45
2018-06-10T17:04:11.646Z,45.59
2018-06-10T17:06:39.296Z,47.17
2018-06-10T17:36:32.314Z,51.67
2018-06-10T17:38:59.886Z,53.40
2018-06-10T17:41:27.486Z,54.71
2018-06-10T17:43:55.384Z,56.17
2018-06-10T17:46:22.920Z,57.73
2018-06-10T17:48:50.838Z,58.21
2018-06-10T17:51:18.550Z,59.43
2018-06-10T17:53:46.114Z,60.01
2018-06-10T17:56:13.907Z,60.70
2018-06-10T17:58:41.496Z,60.52
2018-06-10T18:01:09.329Z,60.45
2018-06-10T18:03:36.849Z,59.92
2018-06-10T18:06:04.460Z,61.52
2018-06-10T18:08:32.177Z,61.75
2018-06-10T18:10:59.927Z,62.13
2018-06-10T18:13:27.522Z,62.22
2018-06-10T18:15:55.306Z,62.90
2018-06-10T18:18:22.904Z,62.92
2018-06-10T18:20:50.634Z,62.86
2018-06-10T18:23:18.523Z,63.32
2018-06-10T18:25:46.070Z,63.39
2018-06-10T18:28:13.851Z,63.39
2018-06-10T18:30:41.506Z,63.91
2018-06-10T18:33:09.118Z,64.16
2018-06-10T18:35:37.013Z,64.89
2018-06-10T18:38:04.854Z,65.71
2018-06-10T18:40:32.496Z,65.93
2018-06-10T18:43:00.459Z,65.81
2018-06-10T18:45:28.268Z,65.89
2018-06-10T18:47:56.519Z,66.05
2018-06-10T18:50:25.071Z,66.04
2018-06-10T18:52:52.706Z,66.24
2018-06-10T18:55:20.438Z,66.12
2018-06-10T18:57:48.295Z,66.01
2018-06-10T19:00:15.939Z,66.81
2018-06-10T19:02:43.615Z,66.63
2018-06-10T19:05:11.198Z,65.97
2018-06-10T19:07:38.742Z,66.38
2018-06-10T19:10:06.283Z,67.42
2018-06-10T19:12:34.202Z,67.64
2018-06-10T19:15:01.831Z,67.55
2018-06-10T19:17:29.439Z,66.59
2018-06-10T19:19:57.374Z,66.62
2018-06-10T19:22:24.887Z,67.50
2018-06-10T19:24:52.619Z,67.50
2018-06-10T19:27:20.499Z,68.19
2018-06-10T19:29:48.034Z,68.26
2018-06-10T19:32:15.878Z,67.95
2018-06-10T19:34:43.450Z,68.16
2018-06-10T19:37:11.107Z,68.75
2018-06-10T19:39:38.879Z,68.52
2018-06-10T19:42:06.455Z,68.40
2018-06-10T19:44:34.287Z,68.06
2018-06-10T19:47:02.522Z,68.59
2018-06-10T19:49:30.103Z,68.82
2018-06-10T19:51:57.989Z,68.66
2018-06-10T19:54:25.508Z,68.75
2018-06-10T19:56:53.191Z,68.74
2018-06-10T19:59:21.226Z,68.81
2018-06-10T20:01:48.786Z,68.87
2018-06-10T20:04:16.588Z,68.78
2018-06-10T20:06:44.437Z,69.20
2018-06-10T20:09:12.039Z,69.63
2018-06-10T20:11:39.985Z,69.70
2018-06-10T20:14:07.537Z,69.81
2018-06-10T20:16:35.148Z,69.93
2018-06-10T20:19:03.150Z,70.27
2018-06-10T20:21:30.767Z,70.24
2018-06-10T20:23:58.472Z,70.43
2018-06-10T20:26:26.160Z,70.99
2018-06-10T20:28:53.747Z,71.75
2018-06-10T20:31:21.634Z,72.07
2018-06-10T20:33:49.233Z,73.01
2018-06-10T20:36:16.972Z,73.15
2018-06-10T20:38:44.837Z,73.06
2018-06-10T20:41:12.389Z,72.43
2018-06-10T20:43:39.910Z,72.26
2018-06-10T20:46:07.451Z,72.20
2018-06-10T20:48:35.150Z,71.29
2018-06-10T20:51:02.659Z,71.30
2018-06-10T20:53:30.243Z,71.20
2018-06-10T20:55:57.806Z,71.52
2018-06-10T20:58:25.342Z,70.93
2018-06-10T21:00:52.887Z,71.06
2018-06-10T21:03:20.431Z,70.00
2018-06-10T21:05:47.955Z,70.23
2018-06-10T21:08:15.482Z,70.35
2018-06-10T21:10:43.065Z,70.68
2018-06-10T21:13:11.213Z,71.12
2018-06-10T21:15:38.731Z,70.37
2018-06-10T21:18:06.314Z,70.95
2018-06-10T21:20:34.067Z,71.01
2018-06-10T21:23:01.587Z,71.27
2018-06-10T21:25:29.127Z,70.88
2018-06-10T21:27:56.667Z,70.71
2018-06-10T21:30:24.174Z,70.94
2018-06-10T21:32:51.756Z,70.80
2018-06-10T21:35:19.255Z,70.54
2018-06-10T21:37:46.790Z,69.75
2018-06-10T21:40:14.364Z,69.43
2018-06-10T21:42:41.902Z,69.90
2018-06-10T21:45:09.421Z,70.30
2018-06-10T21:47:36.983Z,69.82
2018-06-10T21:50:04.527Z,70.00
2018-06-10T21:52:32.083Z,71.10
2018-06-10T21:54:59.676Z,70.37
2018-06-10T21:57:27.231Z,71.00
2018-06-10T21:59:54.745Z,70.97
2018-06-10T22:02:22.314Z,70.99
2018-06-10T22:04:49.851Z,70.68
2018-06-10T22:07:17.397Z,71.00
2018-06-10T22:09:44.959Z,71.04
2018-06-10T22:12:12.540Z,71.25
2018-06-10T22:14:40.080Z,71.04
2018-06-10T22:17:07.625Z,70.55
2018-06-10T22:19:35.153Z,70.88
2018-06-10T22:22:02.703Z,71.02
2018-06-10T22:24:30.334Z,70.38
2018-06-10T22:26:57.906Z,70.54
2018-06-10T22:29:25.470Z,70.52
2018-06-10T22:31:53.093Z,70.78
2018-06-10T22:34:20.574Z,71.30
2018-06-10T22:36:48.148Z,71.05
2018-06-10T22:39:15.790Z,70.86
2018-06-10T22:41:43.346Z,70.46
2018-06-10T22:44:10.875Z,70.40
2018-06-10T22:46:38.451Z,70.44
2018-06-10T22:49:05.973Z,70.60
2018-06-10T22:51:33.525Z,70.62
2018-06-10T22:54:12.263Z,69.97
2018-06-10T22:56:39.823Z,70.32
2018-06-10T22:59:07.326Z,70.47
2018-06-10T23:01:34.920Z,69.94
2018-06-10T23:04:02.474Z,70.44
2018-06-10T23:06:30.074Z,70.51
2018-06-10T23:08:57.619Z,70.59
2018-06-10T23:11:25.156Z,70.82
2018-06-10T23:13:52.671Z,70.61
2018-06-10T23:16:20.240Z,70.47
2018-06-10T23:18:47.766Z,70.41
2018-06-10T23:21:15.301Z,70.83
2018-06-10T23:23:42.859Z,70.46
2018-06-10T23:26:10.403Z,70.09
2018-06-10T23:28:37.990Z,69.76
2018-06-10T23:31:05.699Z,69.75
2018-06-10T23:33:33.235Z,70.10
2018-06-10T23:36:00.762Z,70.07
2018-06-10T23:38:28.346Z,69.58
2018-06-10T23:40:55.872Z,69.41
2018-06-10T23:43:23.452Z,69.61
2018-06-10T23:48:17.909Z,69.80
2018-06-10T23:50:45.445Z,69.47
2018-06-10T23:53:13.022Z,69.37
2018-06-10T23:55:40.558Z,69.23
2018-06-10T23:58:08.080Z,69.25
